sensor_id;sensor_type;location;lat;lon;timestamp;P1;durP1;ratioP1;P2;durP2;ratioP2
65009;SDS011;51556;50.002;22.014;2022-09-09T00:04:34;16.60;;;11.40;;
65009;SDS011;51556;50.002;22.014;2022-09-09T00:09:52;17.00;;;11.10;;
65009;SDS011;51556;50.002;22.014;2022-09-09T00:19:00;14.20;;;10.60;;
65009;SDS011;51556;50.002;22.014;2022-09-09T00:21:30;14.40;;;10.50;;
65009;SDS011;51556;50.002;22.014;2022-09-09T00:23:59;11.70;;;9.20;;
65009;SDS011;51556;50.002;22.014;2022-09-09T00:26:38;13.80;;;9.90;;
65009;SDS011;51556;50.002;22.014;2022-09-09T00:31:40;12.00;;;9.00;;
65009;SDS011;51556;50.002;22.014;2022-09-09T00:34:13;9.80;;;7.70;;
65009;SDS011;51556;50.002;22.014;2022-09-09T00:36:43;9.80;;;7.60;;
65009;SDS011;51556;50.002;22.014;2022-09-09T00:39:25;10.50;;;8.40;;
65009;SDS011;51556;50.002;22.014;2022-09-09T00:44:39;10.30;;;8.30;;
65009;SDS011;51556;50.002;22.014;2022-09-09T00:55:48;17.40;;;11.90;;
65009;SDS011;51556;50.002;22.014;2022-09-09T00:58:21;17.20;;;12.90;;
65009;SDS011;51556;50.002;22.014;2022-09-09T01:00:50;18.80;;;12.90;;
65009;SDS011;51556;50.002;22.014;2022-09-09T01:03:30;18.70;;;13.20;;
65009;SDS011;51556;50.002;22.014;2022-09-09T01:06:11;19.10;;;14.30;;
65009;SDS011;51556;50.002;22.014;2022-09-09T01:12:12;24.70;;;16.80;;
65009;SDS011;51556;50.002;22.014;2022-09-09T01:22:47;24.60;;;18.00;;
65009;SDS011;51556;50.002;22.014;2022-09-09T01:27:46;27.10;;;19.30;;
65009;SDS011;51556;50.002;22.014;2022-09-09T01:30:14;34.40;;;22.60;;
65009;SDS011;51556;50.002;22.014;2022-09-09T01:32:43;37.90;;;25.20;;
65009;SDS011;51556;50.002;22.014;2022-09-09T01:35:57;40.20;;;23.20;;
65009;SDS011;51556;50.002;22.014;2022-09-09T01:37:56;40.00;;;24.70;;
65009;SDS011;51556;50.002;22.014;2022-09-09T01:40:22;46.20;;;27.50;;
65009;SDS011;51556;50.002;22.014;2022-09-09T01:42:49;43.50;;;26.50;;
65009;SDS011;51556;50.002;22.014;2022-09-09T01:45:14;44.00;;;25.90;;
65009;SDS011;51556;50.002;22.014;2022-09-09T01:47:40;44.70;;;26.40;;
65009;SDS011;51556;50.002;22.014;2022-09-09T01:50:07;41.90;;;26.00;;
65009;SDS011;51556;50.002;22.014;2022-09-09T01:52:36;45.30;;;26.40;;
65009;SDS011;51556;50.002;22.014;2022-09-09T01:55:02;46.70;;;28.00;;
65009;SDS011;51556;50.002;22.014;2022-09-09T01:57:50;46.00;;;27.00;;
65009;SDS011;51556;50.002;22.014;2022-09-09T02:00:19;44.10;;;26.60;;
65009;SDS011;51556;50.002;22.014;2022-09-09T02:06:02;40.70;;;26.40;;
65009;SDS011;51556;50.002;22.014;2022-09-09T02:11:24;40.40;;;25.60;;
65009;SDS011;51556;50.002;22.014;2022-09-09T02:13:58;41.80;;;25.70;;
65009;SDS011;51556;50.002;22.014;2022-09-09T02:16:40;43.40;;;25.60;;
65009;SDS011;51556;50.002;22.014;2022-09-09T02:22:11;45.60;;;26.00;;
65009;SDS011;51556;50.002;22.014;2022-09-09T02:24:39;40.60;;;25.20;;
65009;SDS011;51556;50.002;22.014;2022-09-09T02:27:06;40.80;;;26.20;;
65009;SDS011;51556;50.002;22.014;2022-09-09T02:29:35;38.30;;;25.40;;
65009;SDS011;51556;50.002;22.014;2022-09-09T02:32:06;36.20;;;23.40;;
65009;SDS011;51556;50.002;22.014;2022-09-09T02:34:38;37.80;;;24.20;;
65009;SDS011;51556;50.002;22.014;2022-09-09T02:37:08;40.60;;;25.00;;
65009;SDS011;51556;50.002;22.014;2022-09-09T02:39:36;35.30;;;24.20;;
65009;SDS011;51556;50.002;22.014;2022-09-09T02:42:03;40.00;;;25.10;;
65009;SDS011;51556;50.002;22.014;2022-09-09T02:44:29;38.60;;;24.70;;
65009;SDS011;51556;50.002;22.014;2022-09-09T02:50:04;40.20;;;23.70;;
65009;SDS011;51556;50.002;22.014;2022-09-09T02:52:42;42.30;;;24.30;;
65009;SDS011;51556;50.002;22.014;2022-09-09T02:58:02;35.20;;;23.90;;
65009;SDS011;51556;50.002;22.014;2022-09-09T03:00:32;40.70;;;25.10;;
65009;SDS011;51556;50.002;22.014;2022-09-09T03:03:01;43.70;;;23.40;;
65009;SDS011;51556;50.002;22.014;2022-09-09T03:05:28;37.70;;;23.40;;
65009;SDS011;51556;50.002;22.014;2022-09-09T03:07:54;36.30;;;22.80;;
65009;SDS011;51556;50.002;22.014;2022-09-09T03:10:20;38.70;;;22.40;;
65009;SDS011;51556;50.002;22.014;2022-09-09T03:12:45;35.70;;;21.80;;
65009;SDS011;51556;50.002;22.014;2022-09-09T03:15:11;37.30;;;22.10;;
65009;SDS011;51556;50.002;22.014;2022-09-09T03:17:37;37.00;;;21.50;;
65009;SDS011;51556;50.002;22.014;2022-09-09T03:20:03;36.40;;;22.30;;
65009;SDS011;51556;50.002;22.014;2022-09-09T03:22:29;36.20;;;22.10;;
65009;SDS011;51556;50.002;22.014;2022-09-09T03:24:55;32.70;;;21.70;;
65009;SDS011;51556;50.002;22.014;2022-09-09T03:27:20;31.80;;;20.80;;
65009;SDS011;51556;50.002;22.014;2022-09-09T03:29:46;36.90;;;22.00;;
65009;SDS011;51556;50.002;22.014;2022-09-09T03:32:12;34.60;;;22.60;;
65009;SDS011;51556;50.002;22.014;2022-09-09T03:34:38;34.80;;;22.00;;
65009;SDS011;51556;50.002;22.014;2022-09-09T03:37:07;33.30;;;21.90;;
65009;SDS011;51556;50.002;22.014;2022-09-09T03:39:32;33.80;;;21.40;;
65009;SDS011;51556;50.002;22.014;2022-09-09T03:41:58;30.50;;;20.00;;
65009;SDS011;51556;50.002;22.014;2022-09-09T03:44:23;34.60;;;21.50;;
65009;SDS011;51556;50.002;22.014;2022-09-09T03:46:49;34.60;;;22.10;;
65009;SDS011;51556;50.002;22.014;2022-09-09T03:49:14;33.20;;;21.60;;
65009;SDS011;51556;50.002;22.014;2022-09-09T03:51:40;35.40;;;21.20;;
65009;SDS011;51556;50.002;22.014;2022-09-09T03:54:06;33.00;;;20.20;;
65009;SDS011;51556;50.002;22.014;2022-09-09T03:56:35;31.00;;;20.30;;
65009;SDS011;51556;50.002;22.014;2022-09-09T03:59:01;30.80;;;20.60;;
65009;SDS011;51556;50.002;22.014;2022-09-09T04:01:27;30.90;;;19.80;;
65009;SDS011;51556;50.002;22.014;2022-09-09T04:03:53;31.70;;;21.00;;
65009;SDS011;51556;50.002;22.014;2022-09-09T04:06:22;39.10;;;20.70;;
65009;SDS011;51556;50.002;22.014;2022-09-09T04:08:48;32.80;;;21.30;;
65009;SDS011;51556;50.002;22.014;2022-09-09T04:11:14;31.80;;;21.40;;
65009;SDS011;51556;50.002;22.014;2022-09-09T04:13:40;32.70;;;21.20;;
65009;SDS011;51556;50.002;22.014;2022-09-09T04:16:07;28.20;;;20.30;;
65009;SDS011;51556;50.002;22.014;2022-09-09T04:18:34;31.80;;;20.70;;
65009;SDS011;51556;50.002;22.014;2022-09-09T04:20:59;29.40;;;19.50;;
65009;SDS011;51556;50.002;22.014;2022-09-09T04:23:27;28.10;;;20.10;;
65009;SDS011;51556;50.002;22.014;2022-09-09T04:25:56;30.50;;;20.00;;
65009;SDS011;51556;50.002;22.014;2022-09-09T04:28:24;29.10;;;20.50;;
65009;SDS011;51556;50.002;22.014;2022-09-09T04:30:52;29.00;;;19.80;;
65009;SDS011;51556;50.002;22.014;2022-09-09T04:33:18;28.00;;;19.70;;
65009;SDS011;51556;50.002;22.014;2022-09-09T04:35:47;29.10;;;19.80;;
65009;SDS011;51556;50.002;22.014;2022-09-09T04:40:42;27.90;;;19.50;;
65009;SDS011;51556;50.002;22.014;2022-09-09T04:43:08;26.40;;;19.10;;
65009;SDS011;51556;50.002;22.014;2022-09-09T04:45:35;29.20;;;18.70;;
65009;SDS011;51556;50.002;22.014;2022-09-09T04:48:01;27.10;;;18.60;;
65009;SDS011;51556;50.002;22.014;2022-09-09T04:50:27;28.60;;;19.30;;
65009;SDS011;51556;50.002;22.014;2022-09-09T04:52:53;30.70;;;19.50;;
65009;SDS011;51556;50.002;22.014;2022-09-09T04:55:19;33.90;;;20.40;;
65009;SDS011;51556;50.002;22.014;2022-09-09T04:57:45;30.60;;;20.80;;
65009;SDS011;51556;50.002;22.014;2022-09-09T05:00:11;36.70;;;21.40;;
65009;SDS011;51556;50.002;22.014;2022-09-09T05:02:38;32.50;;;20.60;;
65009;SDS011;51556;50.002;22.014;2022-09-09T05:05:05;29.80;;;19.00;;
65009;SDS011;51556;50.002;22.014;2022-09-09T05:07:31;29.90;;;19.10;;
65009;SDS011;51556;50.002;22.014;2022-09-09T05:09:57;33.30;;;21.20;;
65009;SDS011;51556;50.002;22.014;2022-09-09T05:12:23;28.90;;;17.90;;
65009;SDS011;51556;50.002;22.014;2022-09-09T05:14:52;31.50;;;20.20;;
65009;SDS011;51556;50.002;22.014;2022-09-09T05:17:17;32.10;;;19.50;;
65009;SDS011;51556;50.002;22.014;2022-09-09T05:19:43;34.90;;;20.90;;
65009;SDS011;51556;50.002;22.014;2022-09-09T05:22:09;34.50;;;20.80;;
65009;SDS011;51556;50.002;22.014;2022-09-09T05:24:36;34.00;;;21.40;;
65009;SDS011;51556;50.002;22.014;2022-09-09T05:27:03;36.60;;;20.20;;
65009;SDS011;51556;50.002;22.014;2022-09-09T05:29:31;37.60;;;21.70;;
65009;SDS011;51556;50.002;22.014;2022-09-09T05:31:58;31.70;;;21.30;;
65009;SDS011;51556;50.002;22.014;2022-09-09T05:34:24;33.10;;;19.40;;
65009;SDS011;51556;50.002;22.014;2022-09-09T05:36:50;30.90;;;20.80;;
65009;SDS011;51556;50.002;22.014;2022-09-09T05:39:17;30.60;;;19.10;;
65009;SDS011;51556;50.002;22.014;2022-09-09T05:41:43;28.60;;;19.10;;
65009;SDS011;51556;50.002;22.014;2022-09-09T05:44:08;27.70;;;18.90;;
65009;SDS011;51556;50.002;22.014;2022-09-09T05:46:34;28.00;;;19.00;;
65009;SDS011;51556;50.002;22.014;2022-09-09T05:48:59;28.80;;;18.40;;
65009;SDS011;51556;50.002;22.014;2022-09-09T05:51:25;23.90;;;17.70;;
65009;SDS011;51556;50.002;22.014;2022-09-09T05:53:53;27.70;;;18.80;;
65009;SDS011;51556;50.002;22.014;2022-09-09T05:56:23;25.00;;;17.30;;
65009;SDS011;51556;50.002;22.014;2022-09-09T05:58:51;27.10;;;16.50;;
65009;SDS011;51556;50.002;22.014;2022-09-09T06:01:26;23.60;;;17.60;;
65009;SDS011;51556;50.002;22.014;2022-09-09T06:03:52;23.90;;;17.90;;
65009;SDS011;51556;50.002;22.014;2022-09-09T06:06:37;23.10;;;17.00;;
65009;SDS011;51556;50.002;22.014;2022-09-09T06:09:04;17.30;;;14.30;;
65009;SDS011;51556;50.002;22.014;2022-09-09T06:11:34;17.30;;;13.20;;
65009;SDS011;51556;50.002;22.014;2022-09-09T06:14:01;19.70;;;13.40;;
65009;SDS011;51556;50.002;22.014;2022-09-09T06:16:27;17.10;;;11.20;;
65009;SDS011;51556;50.002;22.014;2022-09-09T06:18:54;12.80;;;10.70;;
65009;SDS011;51556;50.002;22.014;2022-09-09T06:21:34;15.50;;;10.40;;
65009;SDS011;51556;50.002;22.014;2022-09-09T06:24:05;15.60;;;11.00;;
65009;SDS011;51556;50.002;22.014;2022-09-09T06:26:33;13.20;;;9.70;;
65009;SDS011;51556;50.002;22.014;2022-09-09T06:29:00;12.60;;;9.90;;
65009;SDS011;51556;50.002;22.014;2022-09-09T06:31:29;12.10;;;9.60;;
65009;SDS011;51556;50.002;22.014;2022-09-09T06:33:57;11.60;;;9.60;;
65009;SDS011;51556;50.002;22.014;2022-09-09T06:36:25;13.00;;;10.10;;
65009;SDS011;51556;50.002;22.014;2022-09-09T06:38:52;11.30;;;9.30;;
65009;SDS011;51556;50.002;22.014;2022-09-09T06:41:18;13.20;;;9.50;;
65009;SDS011;51556;50.002;22.014;2022-09-09T06:43:45;12.90;;;8.90;;
65009;SDS011;51556;50.002;22.014;2022-09-09T06:46:13;15.50;;;9.20;;
65009;SDS011;51556;50.002;22.014;2022-09-09T06:48:41;11.30;;;8.90;;
65009;SDS011;51556;50.002;22.014;2022-09-09T06:51:08;11.10;;;9.40;;
65009;SDS011;51556;50.002;22.014;2022-09-09T06:53:39;11.30;;;8.80;;
65009;SDS011;51556;50.002;22.014;2022-09-09T06:58:43;11.60;;;8.50;;
65009;SDS011;51556;50.002;22.014;2022-09-09T07:01:11;9.40;;;8.10;;
65009;SDS011;51556;50.002;22.014;2022-09-09T07:03:39;10.50;;;8.60;;
65009;SDS011;51556;50.002;22.014;2022-09-09T07:06:05;11.00;;;8.40;;
65009;SDS011;51556;50.002;22.014;2022-09-09T07:08:32;9.40;;;8.40;;
65009;SDS011;51556;50.002;22.014;2022-09-09T07:11:02;15.20;;;9.30;;
65009;SDS011;51556;50.002;22.014;2022-09-09T07:13:32;9.60;;;8.20;;
65009;SDS011;51556;50.002;22.014;2022-09-09T07:18:31;10.40;;;7.30;;
65009;SDS011;51556;50.002;22.014;2022-09-09T07:20:56;10.10;;;8.60;;
65009;SDS011;51556;50.002;22.014;2022-09-09T07:23:23;12.00;;;9.00;;
65009;SDS011;51556;50.002;22.014;2022-09-09T07:25:49;10.90;;;9.10;;
65009;SDS011;51556;50.002;22.014;2022-09-09T07:28:15;10.70;;;9.20;;
65009;SDS011;51556;50.002;22.014;2022-09-09T07:30:42;10.70;;;9.60;;
65009;SDS011;51556;50.002;22.014;2022-09-09T07:33:08;10.60;;;9.10;;
65009;SDS011;51556;50.002;22.014;2022-09-09T07:35:34;10.60;;;8.80;;
65009;SDS011;51556;50.002;22.014;2022-09-09T07:38:02;10.60;;;7.20;;
65009;SDS011;51556;50.002;22.014;2022-09-09T07:40:31;10.10;;;7.70;;
65009;SDS011;51556;50.002;22.014;2022-09-09T07:42:59;9.80;;;7.70;;
65009;SDS011;51556;50.002;22.014;2022-09-09T07:45:25;9.40;;;8.10;;
65009;SDS011;51556;50.002;22.014;2022-09-09T07:47:53;9.90;;;7.00;;
65009;SDS011;51556;50.002;22.014;2022-09-09T07:50:18;11.90;;;7.00;;
65009;SDS011;51556;50.002;22.014;2022-09-09T07:52:44;9.10;;;7.10;;
65009;SDS011;51556;50.002;22.014;2022-09-09T07:55:09;8.80;;;6.50;;
65009;SDS011;51556;50.002;22.014;2022-09-09T07:57:35;8.30;;;6.50;;
65009;SDS011;51556;50.002;22.014;2022-09-09T08:00:02;9.90;;;5.90;;
65009;SDS011;51556;50.002;22.014;2022-09-09T08:02:29;7.70;;;5.60;;
65009;SDS011;51556;50.002;22.014;2022-09-09T08:04:54;12.60;;;7.40;;
65009;SDS011;51556;50.002;22.014;2022-09-09T08:07:21;8.80;;;5.20;;
65009;SDS011;51556;50.002;22.014;2022-09-09T08:09:48;4.60;;;4.00;;
65009;SDS011;51556;50.002;22.014;2022-09-09T08:12:14;6.00;;;3.80;;
65009;SDS011;51556;50.002;22.014;2022-09-09T08:14:40;6.80;;;3.20;;
65009;SDS011;51556;50.002;22.014;2022-09-09T08:17:05;6.50;;;3.50;;
65009;SDS011;51556;50.002;22.014;2022-09-09T08:19:31;6.80;;;3.40;;
65009;SDS011;51556;50.002;22.014;2022-09-09T08:22:01;5.10;;;3.50;;
65009;SDS011;51556;50.002;22.014;2022-09-09T08:24:28;4.50;;;3.50;;
65009;SDS011;51556;50.002;22.014;2022-09-09T08:26:54;6.70;;;3.90;;
65009;SDS011;51556;50.002;22.014;2022-09-09T08:29:21;6.30;;;3.90;;
65009;SDS011;51556;50.002;22.014;2022-09-09T08:31:52;7.20;;;3.70;;
65009;SDS011;51556;50.002;22.014;2022-09-09T08:34:19;4.40;;;3.60;;
65009;SDS011;51556;50.002;22.014;2022-09-09T08:36:47;6.20;;;4.00;;
65009;SDS011;51556;50.002;22.014;2022-09-09T08:39:14;7.30;;;3.60;;
65009;SDS011;51556;50.002;22.014;2022-09-09T08:41:52;3.80;;;2.90;;
65009;SDS011;51556;50.002;22.014;2022-09-09T08:44:36;6.00;;;3.00;;
65009;SDS011;51556;50.002;22.014;2022-09-09T08:55:50;3.60;;;3.20;;
65009;SDS011;51556;50.002;22.014;2022-09-09T08:58:32;5.20;;;3.30;;
65009;SDS011;51556;50.002;22.014;2022-09-09T09:11:46;5.10;;;3.30;;
65009;SDS011;51556;50.002;22.014;2022-09-09T09:16:53;3.40;;;3.00;;
65009;SDS011;51556;50.002;22.014;2022-09-09T09:19:22;4.60;;;3.20;;
65009;SDS011;51556;50.002;22.014;2022-09-09T09:21:53;4.70;;;3.70;;
65009;SDS011;51556;50.002;22.014;2022-09-09T09:27:33;3.80;;;3.30;;
65009;SDS011;51556;50.002;22.014;2022-09-09T09:30:01;4.50;;;2.90;;
65009;SDS011;51556;50.002;22.014;2022-09-09T09:32:37;3.80;;;2.40;;
65009;SDS011;51556;50.002;22.014;2022-09-09T09:35:10;3.20;;;2.90;;
65009;SDS011;51556;50.002;22.014;2022-09-09T09:37:37;3.60;;;2.70;;
65009;SDS011;51556;50.002;22.014;2022-09-09T09:40:09;3.60;;;3.30;;
65009;SDS011;51556;50.002;22.014;2022-09-09T09:45:25;5.00;;;3.30;;
65009;SDS011;51556;50.002;22.014;2022-09-09T09:47:58;4.20;;;3.30;;
65009;SDS011;51556;50.002;22.014;2022-09-09T09:50:28;4.70;;;3.50;;
65009;SDS011;51556;50.002;22.014;2022-09-09T09:52:58;3.40;;;3.10;;
65009;SDS011;51556;50.002;22.014;2022-09-09T09:55:26;2.80;;;2.60;;
65009;SDS011;51556;50.002;22.014;2022-09-09T09:58:05;4.00;;;2.80;;
65009;SDS011;51556;50.002;22.014;2022-09-09T10:00:32;2.80;;;2.50;;
65009;SDS011;51556;50.002;22.014;2022-09-09T10:03:01;3.20;;;2.30;;
65009;SDS011;51556;50.002;22.014;2022-09-09T10:05:28;2.70;;;2.50;;
65009;SDS011;51556;50.002;22.014;2022-09-09T10:08:05;2.30;;;2.10;;
65009;SDS011;51556;50.002;22.014;2022-09-09T10:10:41;2.20;;;2.00;;
65009;SDS011;51556;50.002;22.014;2022-09-09T10:16:01;4.70;;;2.90;;
65009;SDS011;51556;50.002;22.014;2022-09-09T10:21:48;2.30;;;2.10;;
65009;SDS011;51556;50.002;22.014;2022-09-09T10:27:38;3.50;;;2.50;;
65009;SDS011;51556;50.002;22.014;2022-09-09T10:33:05;4.10;;;2.60;;
65009;SDS011;51556;50.002;22.014;2022-09-09T10:47:25;3.00;;;2.60;;
65009;SDS011;51556;50.002;22.014;2022-09-09T10:55:39;3.40;;;2.30;;
65009;SDS011;51556;50.002;22.014;2022-09-09T10:58:10;3.30;;;2.50;;
65009;SDS011;51556;50.002;22.014;2022-09-09T11:03:19;3.30;;;2.50;;
65009;SDS011;51556;50.002;22.014;2022-09-09T11:05:56;3.20;;;2.50;;
65009;SDS011;51556;50.002;22.014;2022-09-09T11:08:26;2.90;;;2.60;;
65009;SDS011;51556;50.002;22.014;2022-09-09T11:13:46;5.70;;;2.60;;
65009;SDS011;51556;50.002;22.014;2022-09-09T11:16:30;3.20;;;2.50;;
65009;SDS011;51556;50.002;22.014;2022-09-09T11:21:53;4.30;;;2.90;;
65009;SDS011;51556;50.002;22.014;2022-09-09T11:29:38;4.70;;;2.80;;
65009;SDS011;51556;50.002;22.014;2022-09-09T11:40:30;3.60;;;2.90;;
65009;SDS011;51556;50.002;22.014;2022-09-09T11:43:04;2.30;;;2.10;;
65009;SDS011;51556;50.002;22.014;2022-09-09T11:45:31;3.70;;;2.50;;
65009;SDS011;51556;50.002;22.014;2022-09-09T11:48:01;2.90;;;2.30;;
65009;SDS011;51556;50.002;22.014;2022-09-09T11:50:29;3.60;;;2.90;;
65009;SDS011;51556;50.002;22.014;2022-09-09T11:53:30;3.60;;;2.50;;
65009;SDS011;51556;50.002;22.014;2022-09-09T11:58:39;4.80;;;2.60;;
65009;SDS011;51556;50.002;22.014;2022-09-09T12:01:14;3.20;;;2.50;;
65009;SDS011;51556;50.002;22.014;2022-09-09T12:17:25;3.20;;;2.40;;
65009;SDS011;51556;50.002;22.014;2022-09-09T12:31:00;4.40;;;2.20;;
65009;SDS011;51556;50.002;22.014;2022-09-09T12:33:47;2.50;;;2.10;;
65009;SDS011;51556;50.002;22.014;2022-09-09T12:36:14;3.40;;;2.10;;
65009;SDS011;51556;50.002;22.014;2022-09-09T12:38:44;2.20;;;2.00;;
65009;SDS011;51556;50.002;22.014;2022-09-09T12:41:50;2.90;;;1.70;;
65009;SDS011;51556;50.002;22.014;2022-09-09T12:44:05;2.00;;;1.80;;
65009;SDS011;51556;50.002;22.014;2022-09-09T12:46:40;2.10;;;1.90;;
65009;SDS011;51556;50.002;22.014;2022-09-09T12:54:26;3.30;;;2.10;;
65009;SDS011;51556;50.002;22.014;2022-09-09T12:56:51;3.50;;;2.20;;
65009;SDS011;51556;50.002;22.014;2022-09-09T12:59:25;2.60;;;2.10;;
65009;SDS011;51556;50.002;22.014;2022-09-09T13:02:00;3.20;;;2.20;;
65009;SDS011;51556;50.002;22.014;2022-09-09T13:04:25;4.10;;;2.70;;
65009;SDS011;51556;50.002;22.014;2022-09-09T13:06:51;3.20;;;2.60;;
65009;SDS011;51556;50.002;22.014;2022-09-09T13:09:20;3.00;;;2.20;;
65009;SDS011;51556;50.002;22.014;2022-09-09T13:11:50;3.00;;;2.00;;
65009;SDS011;51556;50.002;22.014;2022-09-09T13:14:28;3.20;;;2.20;;
65009;SDS011;51556;50.002;22.014;2022-09-09T13:17:01;4.30;;;2.60;;
65009;SDS011;51556;50.002;22.014;2022-09-09T13:19:32;3.90;;;1.80;;
65009;SDS011;51556;50.002;22.014;2022-09-09T13:22:13;2.50;;;2.10;;
65009;SDS011;51556;50.002;22.014;2022-09-09T13:24:44;2.80;;;2.10;;
65009;SDS011;51556;50.002;22.014;2022-09-09T13:27:29;4.30;;;2.60;;
65009;SDS011;51556;50.002;22.014;2022-09-09T13:29:57;3.60;;;2.50;;
65009;SDS011;51556;50.002;22.014;2022-09-09T13:32:23;2.20;;;2.00;;
65009;SDS011;51556;50.002;22.014;2022-09-09T13:34:56;5.80;;;2.70;;
65009;SDS011;51556;50.002;22.014;2022-09-09T13:40:02;5.30;;;2.90;;
65009;SDS011;51556;50.002;22.014;2022-09-09T13:42:31;5.10;;;2.60;;
65009;SDS011;51556;50.002;22.014;2022-09-09T13:45:01;4.60;;;2.40;;
65009;SDS011;51556;50.002;22.014;2022-09-09T13:47:32;3.50;;;2.90;;
65009;SDS011;51556;50.002;22.014;2022-09-09T13:52:56;2.20;;;2.00;;
65009;SDS011;51556;50.002;22.014;2022-09-09T13:55:24;2.20;;;2.00;;
65009;SDS011;51556;50.002;22.014;2022-09-09T14:00:31;4.20;;;2.30;;
65009;SDS011;51556;50.002;22.014;2022-09-09T14:02:59;2.60;;;2.10;;
65009;SDS011;51556;50.002;22.014;2022-09-09T14:05:28;3.80;;;2.60;;
65009;SDS011;51556;50.002;22.014;2022-09-09T14:07:58;3.80;;;2.40;;
65009;SDS011;51556;50.002;22.014;2022-09-09T14:10:25;3.30;;;2.10;;
65009;SDS011;51556;50.002;22.014;2022-09-09T14:12:51;3.50;;;1.80;;
65009;SDS011;51556;50.002;22.014;2022-09-09T14:15:18;4.10;;;2.10;;
65009;SDS011;51556;50.002;22.014;2022-09-09T14:17:44;3.50;;;1.90;;
65009;SDS011;51556;50.002;22.014;2022-09-09T14:20:09;2.70;;;2.10;;
65009;SDS011;51556;50.002;22.014;2022-09-09T14:22:36;3.10;;;2.10;;
65009;SDS011;51556;50.002;22.014;2022-09-09T14:25:04;4.00;;;2.00;;
65009;SDS011;51556;50.002;22.014;2022-09-09T14:27:31;3.30;;;2.30;;
65009;SDS011;51556;50.002;22.014;2022-09-09T14:29:57;3.80;;;2.10;;
65009;SDS011;51556;50.002;22.014;2022-09-09T14:32:25;5.40;;;2.40;;
65009;SDS011;51556;50.002;22.014;2022-09-09T14:34:51;3.70;;;2.00;;
65009;SDS011;51556;50.002;22.014;2022-09-09T14:37:17;3.70;;;2.20;;
65009;SDS011;51556;50.002;22.014;2022-09-09T14:39:43;2.60;;;2.00;;
65009;SDS011;51556;50.002;22.014;2022-09-09T14:42:09;4.10;;;2.00;;
65009;SDS011;51556;50.002;22.014;2022-09-09T14:44:36;2.50;;;2.20;;
65009;SDS011;51556;50.002;22.014;2022-09-09T14:47:05;4.70;;;2.30;;
65009;SDS011;51556;50.002;22.014;2022-09-09T14:49:33;2.90;;;1.80;;
65009;SDS011;51556;50.002;22.014;2022-09-09T14:52:02;2.10;;;1.80;;
65009;SDS011;51556;50.002;22.014;2022-09-09T14:54:29;11.40;;;2.00;;
65009;SDS011;51556;50.002;22.014;2022-09-09T14:56:55;2.40;;;1.70;;
65009;SDS011;51556;50.002;22.014;2022-09-09T14:59:21;3.50;;;2.00;;
65009;SDS011;51556;50.002;22.014;2022-09-09T15:01:47;2.90;;;2.10;;
65009;SDS011;51556;50.002;22.014;2022-09-09T15:04:13;2.80;;;1.70;;
65009;SDS011;51556;50.002;22.014;2022-09-09T15:06:45;4.00;;;1.80;;
65009;SDS011;51556;50.002;22.014;2022-09-09T15:09:13;4.70;;;2.10;;
65009;SDS011;51556;50.002;22.014;2022-09-09T15:11:39;2.00;;;1.80;;
65009;SDS011;51556;50.002;22.014;2022-09-09T15:14:06;2.40;;;1.80;;
65009;SDS011;51556;50.002;22.014;2022-09-09T15:16:34;3.20;;;2.10;;
65009;SDS011;51556;50.002;22.014;2022-09-09T15:19:00;2.60;;;2.00;;
65009;SDS011;51556;50.002;22.014;2022-09-09T15:21:28;2.80;;;2.30;;
65009;SDS011;51556;50.002;22.014;2022-09-09T15:23:55;3.30;;;1.90;;
65009;SDS011;51556;50.002;22.014;2022-09-09T15:26:21;4.50;;;2.30;;
65009;SDS011;51556;50.002;22.014;2022-09-09T15:28:48;2.80;;;2.10;;
65009;SDS011;51556;50.002;22.014;2022-09-09T15:31:19;2.30;;;1.90;;
65009;SDS011;51556;50.002;22.014;2022-09-09T15:33:49;3.20;;;2.10;;
65009;SDS011;51556;50.002;22.014;2022-09-09T15:36:20;4.80;;;1.90;;
65009;SDS011;51556;50.002;22.014;2022-09-09T15:38:50;4.80;;;4.30;;
65009;SDS011;51556;50.002;22.014;2022-09-09T15:41:17;8.80;;;5.90;;
65009;SDS011;51556;50.002;22.014;2022-09-09T15:43:44;10.10;;;7.00;;
65009;SDS011;51556;50.002;22.014;2022-09-09T15:46:30;9.20;;;6.70;;
65009;SDS011;51556;50.002;22.014;2022-09-09T15:51:43;11.30;;;8.00;;
65009;SDS011;51556;50.002;22.014;2022-09-09T15:54:15;10.90;;;7.60;;
65009;SDS011;51556;50.002;22.014;2022-09-09T15:56:43;11.40;;;7.70;;
65009;SDS011;51556;50.002;22.014;2022-09-09T15:59:10;14.30;;;8.40;;
65009;SDS011;51556;50.002;22.014;2022-09-09T16:01:36;11.50;;;7.30;;
65009;SDS011;51556;50.002;22.014;2022-09-09T16:04:04;11.40;;;8.80;;
65009;SDS011;51556;50.002;22.014;2022-09-09T16:06:30;11.10;;;8.30;;
65009;SDS011;51556;50.002;22.014;2022-09-09T16:08:56;10.60;;;7.80;;
65009;SDS011;51556;50.002;22.014;2022-09-09T16:11:32;11.60;;;8.90;;
65009;SDS011;51556;50.002;22.014;2022-09-09T16:14:00;10.60;;;8.20;;
65009;SDS011;51556;50.002;22.014;2022-09-09T16:16:27;13.80;;;8.80;;
65009;SDS011;51556;50.002;22.014;2022-09-09T16:18:55;11.40;;;8.10;;
65009;SDS011;51556;50.002;22.014;2022-09-09T16:21:24;14.10;;;8.40;;
65009;SDS011;51556;50.002;22.014;2022-09-09T16:23:56;12.20;;;8.70;;
65009;SDS011;51556;50.002;22.014;2022-09-09T16:26:24;12.10;;;8.60;;
65009;SDS011;51556;50.002;22.014;2022-09-09T16:28:50;12.10;;;9.30;;
65009;SDS011;51556;50.002;22.014;2022-09-09T16:31:16;12.60;;;9.00;;
65009;SDS011;51556;50.002;22.014;2022-09-09T16:33:44;14.40;;;9.30;;
65009;SDS011;51556;50.002;22.014;2022-09-09T16:36:15;14.50;;;9.60;;
65009;SDS011;51556;50.002;22.014;2022-09-09T16:38:43;18.30;;;10.60;;
65009;SDS011;51556;50.002;22.014;2022-09-09T16:41:09;15.20;;;10.40;;
65009;SDS011;51556;50.002;22.014;2022-09-09T16:43:36;18.40;;;10.30;;
65009;SDS011;51556;50.002;22.014;2022-09-09T16:46:03;15.60;;;10.50;;
65009;SDS011;51556;50.002;22.014;2022-09-09T16:48:36;15.10;;;10.20;;
65009;SDS011;51556;50.002;22.014;2022-09-09T16:51:05;13.80;;;9.80;;
65009;SDS011;51556;50.002;22.014;2022-09-09T16:56:05;15.20;;;10.60;;
65009;SDS011;51556;50.002;22.014;2022-09-09T16:58:31;15.10;;;9.50;;
65009;SDS011;51556;50.002;22.014;2022-09-09T17:01:00;13.10;;;8.90;;
65009;SDS011;51556;50.002;22.014;2022-09-09T17:03:29;15.20;;;10.20;;
65009;SDS011;51556;50.002;22.014;2022-09-09T17:05:56;14.10;;;10.40;;
65009;SDS011;51556;50.002;22.014;2022-09-09T17:08:23;17.10;;;10.10;;
65009;SDS011;51556;50.002;22.014;2022-09-09T17:10:51;13.60;;;9.50;;
65009;SDS011;51556;50.002;22.014;2022-09-09T17:13:17;15.90;;;10.10;;
65009;SDS011;51556;50.002;22.014;2022-09-09T17:15:45;19.90;;;11.00;;
65009;SDS011;51556;50.002;22.014;2022-09-09T17:18:11;13.20;;;9.90;;
65009;SDS011;51556;50.002;22.014;2022-09-09T17:20:38;16.30;;;10.90;;
65009;SDS011;51556;50.002;22.014;2022-09-09T17:23:05;15.50;;;10.80;;
65009;SDS011;51556;50.002;22.014;2022-09-09T17:25:32;14.10;;;10.30;;
65009;SDS011;51556;50.002;22.014;2022-09-09T17:27:57;16.60;;;11.70;;
65009;SDS011;51556;50.002;22.014;2022-09-09T17:30:24;18.40;;;10.60;;
65009;SDS011;51556;50.002;22.014;2022-09-09T17:32:51;15.90;;;11.10;;
65009;SDS011;51556;50.002;22.014;2022-09-09T17:35:16;18.50;;;11.70;;
65009;SDS011;51556;50.002;22.014;2022-09-09T17:37:42;14.20;;;10.50;;
65009;SDS011;51556;50.002;22.014;2022-09-09T17:40:09;16.70;;;10.80;;